createdAt,value
2019-01-03T00:00:01.425Z,-0.78
2019-01-03T00:01:02.078Z,-0.79
2019-01-03T00:02:03.843Z,-0.79
2019-01-03T00:03:04.728Z,-0.79
2019-01-03T00:04:05.743Z,-0.79
2019-01-03T00:05:05.710Z,-0.79
2019-01-03T00:06:07.585Z,-0.79
2019-01-03T00:07:06.726Z,-0.79
2019-01-03T00:08:07.282Z,-0.80
2019-01-03T00:09:11.293Z,-0.81
2019-01-03T00:10:08.604Z,-0.81
2019-01-03T00:11:10.217Z,-0.81
2019-01-03T00:12:10.849Z,-0.82
2019-01-03T00:13:11.370Z,-0.82
2019-01-03T00:14:11.897Z,-0.82
2019-01-03T00:15:12.527Z,-0.82
2019-01-03T00:16:13.105Z,-0.83
2019-01-03T00:17:13.614Z,-0.83
2019-01-03T00:18:14.058Z,-0.83
2019-01-03T00:19:14.610Z,-0.83
2019-01-03T00:20:15.451Z,-0.83
2019-01-03T00:21:16.229Z,-0.83
2019-01-03T00:22:16.879Z,-0.83
2019-01-03T00:23:17.631Z,-0.82
2019-01-03T00:24:18.292Z,-0.82
2019-01-03T00:25:18.911Z,-0.82
2019-01-03T00:26:19.577Z,-0.82
2019-01-03T00:27:20.233Z,-0.82
2019-01-03T00:28:20.918Z,-0.82
2019-01-03T00:29:21.511Z,-0.82
2019-01-03T00:30:22.417Z,-0.82
2019-01-03T00:31:24.855Z,-0.83
2019-01-03T00:32:23.481Z,-0.83
2019-01-03T00:33:24.395Z,-0.83
2019-01-03T00:34:24.261Z,-0.84
2019-01-03T00:35:24.296Z,-0.84
2019-01-03T00:36:25.430Z,-0.84
2019-01-03T00:37:26.163Z,-0.85
2019-01-03T00:38:26.856Z,-0.86
2019-01-03T00:39:27.495Z,-0.87
2019-01-03T00:40:28.149Z,-0.88
2019-01-03T00:41:28.743Z,-0.89
2019-01-03T00:42:29.358Z,-0.91
2019-01-03T00:43:30.031Z,-0.92
2019-01-03T00:44:29.896Z,-0.93
2019-01-03T00:45:31.535Z,-0.94
2019-01-03T00:46:32.314Z,-0.95
2019-01-03T00:47:41.522Z,-1.08
2019-01-03T00:48:42.149Z,-1.09
2019-01-03T00:49:43.976Z,-1.09
2019-01-03T00:50:44.473Z,-1.09
2019-01-03T00:51:45.122Z,-1.09
2019-01-03T00:52:45.230Z,-1.09
2019-01-03T00:53:45.758Z,-1.09
2019-01-03T00:54:46.419Z,-1.09
2019-01-03T00:55:46.964Z,-1.08
2019-01-03T00:56:47.825Z,-1.08
2019-01-03T00:57:48.491Z,-1.08
2019-01-03T00:58:49.461Z,-1.08
2019-01-03T00:59:49.171Z,-1.08
2019-01-03T01:00:50.880Z,-1.07
2019-01-03T01:01:51.821Z,-1.07
2019-01-03T01:02:52.556Z,-1.07
2019-01-03T01:03:53.042Z,-1.07
2019-01-03T01:04:53.532Z,-1.07
2019-01-03T01:05:54.547Z,-1.07
2019-01-03T01:06:54.061Z,-1.07
2019-01-03T01:07:54.638Z,-1.07
2019-01-03T01:08:55.330Z,-1.07
2019-01-03T01:09:56.154Z,-1.07
2019-01-03T01:10:56.312Z,-1.08
2019-01-03T01:11:56.825Z,-1.08
2019-01-03T01:12:57.438Z,-1.08
2019-01-03T01:13:57.948Z,-1.08
2019-01-03T01:14:58.668Z,-1.08
2019-01-03T01:15:59.420Z,-1.09
2019-01-03T01:17:00.302Z,-1.09
2019-01-03T01:18:00.867Z,-1.09
2019-01-03T01:19:01.832Z,-1.09
2019-01-03T01:20:02.758Z,-1.09
2019-01-03T01:21:03.315Z,-1.09
2019-01-03T01:22:03.812Z,-1.09
2019-01-03T01:23:04.387Z,-1.09
2019-01-03T01:24:05.379Z,-1.09
2019-01-03T01:25:05.395Z,-1.09
2019-01-03T01:26:06.137Z,-1.09
2019-01-03T01:27:07.734Z,-1.09
2019-01-03T01:28:07.279Z,-1.09
2019-01-03T01:29:07.851Z,-1.09
2019-01-03T01:30:08.644Z,-1.09
2019-01-03T01:31:09.251Z,-1.09
2019-01-03T01:32:09.924Z,-1.09
2019-01-03T01:33:10.457Z,-1.10
2019-01-03T01:33:32.698Z,-1.15
2019-01-03T01:34:32.470Z,-1.15
2019-01-03T01:35:32.956Z,-1.15
2019-01-03T01:36:33.711Z,-1.15
2019-01-03T01:37:35.470Z,-1.15
2019-01-03T01:38:36.069Z,-1.15
2019-01-03T01:39:36.281Z,-1.14
2019-01-03T01:40:37.181Z,-1.14
2019-01-03T01:41:37.737Z,-1.13
2019-01-03T01:42:38.391Z,-1.13
2019-01-03T01:43:38.358Z,-1.12
2019-01-03T01:44:39.208Z,-1.11
2019-01-03T01:45:39.831Z,-1.10
2019-01-03T01:46:39.424Z,-1.09
2019-01-03T01:47:41.004Z,-1.08
2019-01-03T01:48:44.055Z,-1.07
2019-01-03T01:49:40.783Z,-1.05
2019-01-03T01:50:42.282Z,-1.04
2019-01-03T01:51:42.814Z,-1.02
2019-01-03T01:52:42.478Z,-1.01
2019-01-03T01:53:46.378Z,-1.00
2019-01-03T01:54:43.921Z,-0.99
2019-01-03T01:55:47.948Z,-0.99
2019-01-03T01:56:45.066Z,-0.98
2019-01-03T01:57:46.596Z,-0.97
2019-01-03T01:58:47.282Z,-0.96
2019-01-03T01:59:47.780Z,-0.96
2019-01-03T02:00:48.391Z,-0.95
2019-01-03T02:01:48.943Z,-0.94
2019-01-03T02:02:49.548Z,-0.93
2019-01-03T02:03:50.080Z,-0.92
2019-01-03T02:04:50.741Z,-0.91
2019-01-03T02:05:51.340Z,-0.90
2019-01-03T02:06:51.989Z,-0.89
2019-01-03T02:07:52.573Z,-0.88
2019-01-03T02:08:53.218Z,-0.87
2019-01-03T02:09:53.723Z,-0.86
2019-01-03T02:10:54.331Z,-0.85
2019-01-03T02:11:54.967Z,-0.84
2019-01-03T02:12:55.567Z,-0.83
2019-01-03T02:13:55.785Z,-0.82
2019-01-03T02:14:56.569Z,-0.81
2019-01-03T02:15:56.641Z,-0.80
2019-01-03T02:16:57.197Z,-0.79
2019-01-03T02:17:57.729Z,-0.78
2019-01-03T02:18:58.393Z,-0.77
2019-01-03T02:19:58.004Z,-0.75
2019-01-03T02:20:59.763Z,-0.74
2019-01-03T02:22:00.244Z,-0.73
2019-01-03T02:23:00.698Z,-0.72
2019-01-03T02:24:01.309Z,-0.71
2019-01-03T02:24:11.241Z,-0.50
2019-01-03T02:25:12.650Z,-0.50
2019-01-03T02:26:13.152Z,-0.50
2019-01-03T02:27:13.640Z,-0.50
2019-01-03T02:28:14.572Z,-0.50
2019-01-03T02:29:15.121Z,-0.50
2019-01-03T02:30:15.781Z,-0.49
2019-01-03T02:31:15.284Z,-0.49
2019-01-03T02:32:17.025Z,-0.48
2019-01-03T02:33:16.671Z,-0.47
2019-01-03T02:34:18.310Z,-0.46
2019-01-03T02:35:18.993Z,-0.46
2019-01-03T02:36:19.529Z,-0.45
2019-01-03T02:37:19.947Z,-0.44
2019-01-03T02:38:20.493Z,-0.44
2019-01-03T02:39:21.075Z,-0.43
2019-01-03T02:40:21.694Z,-0.43
2019-01-03T02:41:22.233Z,-0.42
2019-01-03T02:42:22.765Z,-0.42
2019-01-03T02:43:23.307Z,-0.42
2019-01-03T02:44:24.050Z,-0.41
2019-01-03T02:45:24.520Z,-0.41
2019-01-03T02:46:25.011Z,-0.40
2019-01-03T02:47:25.584Z,-0.40
2019-01-03T02:48:26.128Z,-0.40
2019-01-03T02:49:26.793Z,-0.40
2019-01-03T02:50:27.291Z,-0.40
2019-01-03T02:51:27.951Z,-0.39
2019-01-03T02:52:28.557Z,-0.39
2019-01-03T02:53:29.249Z,-0.39
2019-01-03T02:54:30.227Z,-0.39
2019-01-03T02:55:31.096Z,-0.39
2019-01-03T02:56:31.672Z,-0.38
2019-01-03T02:57:32.444Z,-0.38
2019-01-03T02:58:33.063Z,-0.39
2019-01-03T02:59:33.619Z,-0.39
2019-01-03T03:00:34.007Z,-0.39
2019-01-03T03:01:34.928Z,-0.39
2019-01-03T03:02:35.599Z,-0.40
2019-01-03T03:03:36.213Z,-0.40
2019-01-03T03:04:36.735Z,-0.40
2019-01-03T03:05:37.249Z,-0.41
2019-01-03T03:06:37.998Z,-0.42
2019-01-03T03:07:38.742Z,-0.42
2019-01-03T03:08:39.448Z,-0.42
2019-01-03T03:09:40.188Z,-0.43
2019-01-03T03:09:50.304Z,-0.48
2019-01-03T03:10:50.759Z,-0.48
2019-01-03T03:11:51.188Z,-0.48
2019-01-03T03:12:52.167Z,-0.47
2019-01-03T03:13:52.724Z,-0.47
2019-01-03T03:14:53.356Z,-0.46
2019-01-03T03:15:53.915Z,-0.46
2019-01-03T03:16:54.660Z,-0.45
2019-01-03T03:17:55.558Z,-0.45
2019-01-03T03:18:56.115Z,-0.44
2019-01-03T03:19:56.906Z,-0.43
2019-01-03T03:20:57.439Z,-0.43
2019-01-03T03:21:58.217Z,-0.42
2019-01-03T03:22:59.054Z,-0.41
2019-01-03T03:23:59.779Z,-0.40
2019-01-03T03:25:00.555Z,-0.39
2019-01-03T03:26:00.049Z,-0.38
2019-01-03T03:27:01.757Z,-0.37
2019-01-03T03:28:02.289Z,-0.36
2019-01-03T03:29:03.050Z,-0.35
2019-01-03T03:30:03.578Z,-0.34
2019-01-03T03:31:04.200Z,-0.33
2019-01-03T03:32:04.694Z,-0.32
2019-01-03T03:33:05.235Z,-0.31
2019-01-03T03:34:05.721Z,-0.31
2019-01-03T03:35:05.232Z,-0.30
2019-01-03T03:36:07.154Z,-0.30
2019-01-03T03:37:07.789Z,-0.29
2019-01-03T03:38:08.327Z,-0.29
2019-01-03T03:39:07.956Z,-0.29
2019-01-03T03:40:09.591Z,-0.28
2019-01-03T03:41:11.488Z,-0.28
2019-01-03T03:42:09.815Z,-0.27
2019-01-03T03:43:11.226Z,-0.27
2019-01-03T03:44:11.690Z,-0.27
2019-01-03T03:45:12.371Z,-0.27
2019-01-03T03:46:12.825Z,-0.26
2019-01-03T03:47:12.513Z,-0.26
2019-01-03T03:48:13.990Z,-0.26
2019-01-03T03:49:14.564Z,-0.26
2019-01-03T03:50:15.051Z,-0.26
2019-01-03T03:51:15.527Z,-0.26
2019-01-03T03:52:16.040Z,-0.26
2019-01-03T03:53:16.563Z,-0.26
2019-01-03T03:54:17.105Z,-0.26
2019-01-03T03:55:17.755Z,-0.26
2019-01-03T03:56:18.217Z,-0.25
2019-01-03T03:57:18.922Z,-0.25
2019-01-03T03:58:18.403Z,-0.25
2019-01-03T03:58:27.300Z,-0.21
2019-01-03T03:59:28.133Z,-0.22
2019-01-03T04:00:28.631Z,-0.22
2019-01-03T04:01:29.151Z,-0.22
2019-01-03T04:02:29.945Z,-0.21
2019-01-03T04:03:30.623Z,-0.21
2019-01-03T04:04:31.144Z,-0.21
2019-01-03T04:05:31.630Z,-0.20
2019-01-03T04:06:32.310Z,-0.20
2019-01-03T04:07:32.851Z,-0.19
2019-01-03T04:08:33.236Z,-0.18
2019-01-03T04:09:33.886Z,-0.18
2019-01-03T04:10:34.593Z,-0.17
2019-01-03T04:11:35.039Z,-0.16
2019-01-03T04:12:35.525Z,-0.14
2019-01-03T04:13:36.158Z,-0.14
2019-01-03T04:14:36.816Z,-0.13
2019-01-03T04:15:37.672Z,-0.12
2019-01-03T04:16:38.188Z,-0.11
2019-01-03T04:17:38.619Z,-0.10
2019-01-03T04:18:39.020Z,-0.09
2019-01-03T04:19:39.597Z,-0.07
2019-01-03T04:20:40.257Z,-0.06
2019-01-03T04:21:40.754Z,-0.05
2019-01-03T04:22:41.276Z,-0.03
2019-01-03T04:23:41.731Z,-0.02
2019-01-03T04:24:42.400Z,-0.01
2019-01-03T04:25:42.832Z,0.01
2019-01-03T04:26:43.319Z,0.03
2019-01-03T04:27:43.728Z,0.04
2019-01-03T04:28:44.168Z,0.05
2019-01-03T04:29:44.690Z,0.07
2019-01-03T04:30:45.233Z,0.08
2019-01-03T04:31:45.707Z,0.10
2019-01-03T04:32:46.245Z,0.11
2019-01-03T04:33:46.716Z,0.12
2019-01-03T04:34:47.225Z,0.13
2019-01-03T04:35:47.888Z,0.14
2019-01-03T04:36:48.340Z,0.15
2019-01-03T04:37:48.859Z,0.17
2019-01-03T04:38:49.415Z,0.18
2019-01-03T04:39:49.958Z,0.19
2019-01-03T04:40:50.780Z,0.20
2019-01-03T04:41:51.620Z,0.20
2019-01-03T04:42:00.536Z,0.33
2019-01-03T04:43:01.438Z,0.33
2019-01-03T04:44:01.963Z,0.33
2019-01-03T04:45:02.555Z,0.33
2019-01-03T04:46:02.970Z,0.33
2019-01-03T04:47:03.424Z,0.33
2019-01-03T04:48:04.023Z,0.33
2019-01-03T04:49:04.438Z,0.33
2019-01-03T04:50:04.768Z,0.34
2019-01-03T04:51:05.261Z,0.34
2019-01-03T04:52:05.682Z,0.35
2019-01-03T04:53:06.194Z,0.35
2019-01-03T04:54:06.742Z,0.35
2019-01-03T04:55:07.377Z,0.35
2019-01-03T04:56:07.832Z,0.35
2019-01-03T04:57:08.518Z,0.35
2019-01-03T04:58:09.388Z,0.35
2019-01-03T04:59:10.132Z,0.35
2019-01-03T05:00:10.687Z,0.35
2019-01-03T05:01:11.118Z,0.35
2019-01-03T05:02:11.692Z,0.35
2019-01-03T05:03:12.240Z,0.35
2019-01-03T05:04:13.748Z,0.35
2019-01-03T05:05:14.675Z,0.35
2019-01-03T05:06:14.335Z,0.35
2019-01-03T05:07:14.931Z,0.35
2019-01-03T05:08:15.419Z,0.36
2019-01-03T05:09:15.926Z,0.36
2019-01-03T05:10:16.467Z,0.36
2019-01-03T05:11:17.289Z,0.37
2019-01-03T05:12:17.837Z,0.37
2019-01-03T05:13:18.448Z,0.37
2019-01-03T05:14:17.904Z,0.38
2019-01-03T05:15:19.416Z,0.39
2019-01-03T05:16:19.979Z,0.39
2019-01-03T05:17:20.447Z,0.40
2019-01-03T05:18:20.950Z,0.40
2019-01-03T05:19:21.453Z,0.41
2019-01-03T05:20:22.101Z,0.42
2019-01-03T05:21:23.052Z,0.43
2019-01-03T05:22:23.744Z,0.43
2019-01-03T05:23:24.716Z,0.44
2019-01-03T05:24:25.570Z,0.45
2019-01-03T05:25:27.122Z,0.45
2019-01-03T05:26:26.819Z,0.46
2019-01-03T05:27:27.449Z,0.46
2019-01-03T05:27:36.349Z,0.56
2019-01-03T05:28:37.091Z,0.56
2019-01-03T05:29:37.528Z,0.56
2019-01-03T05:30:38.096Z,0.56
2019-01-03T05:31:38.532Z,0.57
2019-01-03T05:32:39.079Z,0.57
2019-01-03T05:33:39.580Z,0.57
2019-01-03T05:34:39.990Z,0.57
2019-01-03T05:35:40.647Z,0.57
2019-01-03T05:36:41.556Z,0.58
2019-01-03T05:37:42.484Z,0.58
2019-01-03T05:38:43.005Z,0.58
2019-01-03T05:39:43.628Z,0.58
2019-01-03T05:40:44.291Z,0.58
2019-01-03T05:41:44.104Z,0.58
2019-01-03T05:42:44.897Z,0.58
2019-01-03T05:43:46.382Z,0.58
2019-01-03T05:44:47.038Z,0.57
2019-01-03T05:45:47.719Z,0.56
2019-01-03T05:46:47.727Z,0.56
2019-01-03T05:47:48.315Z,0.56
2019-01-03T05:48:48.868Z,0.55
2019-01-03T05:49:49.434Z,0.56
2019-01-03T05:50:50.304Z,0.56
2019-01-03T05:51:50.901Z,0.56
2019-01-03T05:52:51.437Z,0.56
2019-01-03T05:53:51.916Z,0.56
2019-01-03T05:54:52.411Z,0.55
2019-01-03T05:55:53.052Z,0.55
2019-01-03T05:56:53.626Z,0.55
2019-01-03T05:57:54.117Z,0.55
2019-01-03T05:58:54.606Z,0.55
2019-01-03T05:59:55.091Z,0.56
2019-01-03T06:00:55.776Z,0.56
2019-01-03T06:01:56.357Z,0.56
2019-01-03T06:02:55.877Z,0.56
2019-01-03T06:03:57.378Z,0.57
2019-01-03T06:04:57.990Z,0.57
2019-01-03T06:05:58.556Z,0.57
2019-01-03T06:06:59.111Z,0.57
2019-01-03T06:07:59.655Z,0.58
2019-01-03T06:09:00.208Z,0.58
2019-01-03T06:10:00.830Z,0.58
2019-01-03T06:11:01.486Z,0.58
2019-01-03T06:12:02.117Z,0.58
2019-01-03T06:13:02.594Z,0.58
2019-01-03T06:14:03.072Z,0.58
2019-01-03T06:15:03.820Z,0.58
2019-01-03T06:15:17.942Z,0.59
2019-01-03T06:16:19.325Z,0.59
2019-01-03T06:17:19.812Z,0.59
2019-01-03T06:18:20.096Z,0.59
2019-01-03T06:19:20.731Z,0.59
2019-01-03T06:20:21.288Z,0.59
2019-01-03T06:21:21.979Z,0.59
2019-01-03T06:22:22.441Z,0.59
2019-01-03T06:23:23.250Z,0.59
2019-01-03T06:24:24.058Z,0.59
2019-01-03T06:25:24.666Z,0.59
2019-01-03T06:26:25.155Z,0.59
2019-01-03T06:27:25.616Z,0.59
2019-01-03T06:28:26.195Z,0.59
2019-01-03T06:29:26.794Z,0.58
2019-01-03T06:30:26.190Z,0.58
2019-01-03T06:31:27.705Z,0.58
2019-01-03T06:32:28.425Z,0.58
2019-01-03T06:33:29.278Z,0.58
2019-01-03T06:34:29.821Z,0.58
2019-01-03T06:35:30.396Z,0.58
2019-01-03T06:36:36.086Z,0.58
2019-01-03T06:37:30.616Z,0.58
2019-01-03T06:38:32.316Z,0.58
2019-01-03T06:39:32.858Z,0.58
2019-01-03T06:40:33.446Z,0.58
2019-01-03T06:41:34.171Z,0.58
2019-01-03T06:42:34.827Z,0.57
2019-01-03T06:43:35.387Z,0.57
2019-01-03T06:44:36.043Z,0.57
2019-01-03T06:45:36.580Z,0.56
2019-01-03T06:46:37.142Z,0.56
2019-01-03T06:47:37.814Z,0.56
2019-01-03T06:48:38.404Z,0.55
2019-01-03T06:49:38.982Z,0.55
2019-01-03T06:50:39.451Z,0.54
2019-01-03T06:51:40.175Z,0.54
2019-01-03T06:52:40.858Z,0.53
2019-01-03T06:53:41.347Z,0.52
2019-01-03T06:54:42.206Z,0.50
2019-01-03T06:55:42.754Z,0.49
2019-01-03T06:56:42.216Z,0.49
2019-01-03T06:57:43.770Z,0.47
2019-01-03T06:58:44.324Z,0.46
2019-01-03T06:59:44.877Z,0.45
2019-01-03T07:00:45.506Z,0.45
2019-01-03T07:01:46.255Z,0.44
2019-01-03T07:01:56.299Z,0.32
2019-01-03T07:02:56.830Z,0.32
2019-01-03T07:03:57.450Z,0.32
2019-01-03T07:04:58.013Z,0.32
2019-01-03T07:05:58.522Z,0.32
2019-01-03T07:06:59.213Z,0.32
2019-01-03T07:07:59.968Z,0.33
2019-01-03T07:09:00.049Z,0.33
2019-01-03T07:10:00.738Z,0.34
2019-01-03T07:11:01.279Z,0.34
2019-01-03T07:12:01.886Z,0.35
2019-01-03T07:13:02.385Z,0.35
2019-01-03T07:14:01.903Z,0.36
2019-01-03T07:15:03.465Z,0.37
2019-01-03T07:16:04.036Z,0.38
2019-01-03T07:17:04.036Z,0.38
2019-01-03T07:18:04.750Z,0.39
2019-01-03T07:19:05.518Z,0.40
2019-01-03T07:20:06.384Z,0.40
2019-01-03T07:21:06.869Z,0.40
2019-01-03T07:22:07.753Z,0.41
2019-01-03T07:23:08.568Z,0.41
2019-01-03T07:24:09.053Z,0.40
2019-01-03T07:25:09.646Z,0.41
2019-01-03T07:26:10.190Z,0.42
2019-01-03T07:27:10.928Z,0.42
2019-01-03T07:28:11.560Z,0.43
2019-01-03T07:29:12.238Z,0.44
2019-01-03T07:30:12.823Z,0.45
2019-01-03T07:31:13.359Z,0.46
2019-01-03T07:32:13.910Z,0.47
2019-01-03T07:33:14.578Z,0.48
2019-01-03T07:34:15.009Z,0.49
2019-01-03T07:35:15.630Z,0.50
2019-01-03T07:36:16.151Z,0.50
2019-01-03T07:37:16.874Z,0.51
2019-01-03T07:38:17.505Z,0.52
2019-01-03T07:39:18.408Z,0.53
2019-01-03T07:40:19.063Z,0.54
2019-01-03T07:41:19.639Z,0.55
2019-01-03T07:42:19.243Z,0.56
2019-01-03T07:43:20.798Z,0.57
2019-01-03T07:44:21.259Z,0.58
2019-01-03T07:45:21.938Z,0.58
2019-01-03T07:46:22.364Z,0.59
2019-01-03T07:46:31.451Z,0.68
2019-01-03T07:47:31.982Z,0.68
2019-01-03T07:48:32.495Z,0.68
2019-01-03T07:49:32.995Z,0.68
2019-01-03T07:50:33.617Z,0.68
2019-01-03T07:51:34.117Z,0.68
2019-01-03T07:52:34.706Z,0.68
2019-01-03T07:53:35.208Z,0.68
2019-01-03T07:54:35.682Z,0.68
2019-01-03T07:55:36.264Z,0.67
2019-01-03T07:56:36.749Z,0.67
2019-01-03T07:57:36.642Z,0.66
2019-01-03T07:58:38.157Z,0.66
2019-01-03T07:59:38.875Z,0.66
2019-01-03T08:00:39.516Z,0.66
2019-01-03T08:01:39.045Z,0.65
2019-01-03T08:02:40.680Z,0.64
2019-01-03T08:03:41.205Z,0.64
2019-01-03T08:04:41.691Z,0.63
2019-01-03T08:05:42.280Z,0.62
2019-01-03T08:06:43.131Z,0.62
2019-01-03T08:07:43.579Z,0.61
2019-01-03T08:08:44.038Z,0.61
2019-01-03T08:09:44.617Z,0.61
2019-01-03T08:10:45.245Z,0.61
2019-01-03T08:11:45.725Z,0.61
2019-01-03T08:12:46.298Z,0.61
2019-01-03T08:13:46.869Z,0.61
2019-01-03T08:14:47.776Z,0.61
2019-01-03T08:15:48.422Z,0.62
2019-01-03T08:16:49.335Z,0.62
2019-01-03T08:17:49.416Z,0.62
2019-01-03T08:18:49.877Z,0.62
2019-01-03T08:19:50.865Z,0.63
2019-01-03T08:20:51.479Z,0.63
2019-01-03T08:21:52.157Z,0.63
2019-01-03T08:22:52.739Z,0.63
2019-01-03T08:23:53.481Z,0.63
2019-01-03T08:24:53.983Z,0.64
2019-01-03T08:25:54.826Z,0.64
2019-01-03T08:26:55.433Z,0.65
2019-01-03T08:27:56.259Z,0.65
2019-01-03T08:28:56.734Z,0.66
2019-01-03T08:29:57.143Z,0.66
2019-01-03T08:30:57.567Z,0.67
2019-01-03T08:31:07.608Z,0.80
2019-01-03T08:32:08.509Z,0.80
2019-01-03T08:33:08.025Z,0.80
2019-01-03T08:34:09.581Z,0.80
2019-01-03T08:35:10.402Z,0.80
2019-01-03T08:36:10.906Z,0.81
2019-01-03T08:37:11.657Z,0.81
2019-01-03T08:38:12.506Z,0.81
2019-01-03T08:39:13.075Z,0.82
2019-01-03T08:40:13.962Z,0.82
2019-01-03T08:41:14.636Z,0.82
2019-01-03T08:42:15.223Z,0.83
2019-01-03T08:43:15.904Z,0.83
2019-01-03T08:44:16.248Z,0.84
2019-01-03T08:45:17.093Z,0.84
2019-01-03T08:46:17.751Z,0.85
2019-01-03T08:47:18.196Z,0.86
2019-01-03T08:48:18.769Z,0.86
2019-01-03T08:49:19.414Z,0.88
2019-01-03T08:50:19.856Z,0.89
2019-01-03T08:51:20.440Z,0.90
2019-01-03T08:52:20.945Z,0.90
2019-01-03T08:53:21.931Z,0.91
2019-01-03T08:54:22.886Z,0.92
2019-01-03T08:55:23.323Z,0.93
2019-01-03T08:56:24.010Z,0.93
2019-01-03T08:57:24.693Z,0.94
2019-01-03T08:58:24.302Z,0.95
2019-01-03T08:59:25.922Z,0.95
2019-01-03T09:00:26.374Z,0.96
2019-01-03T09:01:26.882Z,0.96
2019-01-03T09:02:26.959Z,0.97
2019-01-03T09:03:27.489Z,0.97
2019-01-03T09:04:28.454Z,0.97
2019-01-03T09:05:29.007Z,0.97
2019-01-03T09:06:29.132Z,0.97
2019-01-03T09:07:32.229Z,0.97
2019-01-03T09:08:29.419Z,0.98
2019-01-03T09:09:31.306Z,0.98
2019-01-03T09:10:32.126Z,0.98
2019-01-03T09:11:31.093Z,0.99
2019-01-03T09:12:32.822Z,0.99
2019-01-03T09:13:33.500Z,1.00
2019-01-03T09:14:34.043Z,1.00
2019-01-03T09:15:34.571Z,1.00
2019-01-03T09:16:35.296Z,1.00
2019-01-03T09:16:43.623Z,1.08
2019-01-03T09:17:44.366Z,1.08
2019-01-03T09:18:44.920Z,1.08
2019-01-03T09:19:45.764Z,1.08
2019-01-03T09:20:46.229Z,1.08
2019-01-03T09:21:48.020Z,1.08
2019-01-03T09:22:47.833Z,1.08
2019-01-03T09:23:48.549Z,1.08
2019-01-03T09:24:49.024Z,1.09
2019-01-03T09:25:49.855Z,1.09
2019-01-03T09:26:50.458Z,1.09
2019-01-03T09:27:51.172Z,1.09
2019-01-03T09:28:51.722Z,1.09
2019-01-03T09:29:52.179Z,1.10
2019-01-03T09:30:52.597Z,1.10
2019-01-03T09:31:53.192Z,1.11
2019-01-03T09:32:54.155Z,1.11
2019-01-03T09:33:54.754Z,1.12
2019-01-03T09:34:55.388Z,1.12
2019-01-03T09:35:55.847Z,1.13
2019-01-03T09:36:56.420Z,1.14
2019-01-03T09:37:56.701Z,1.14
2019-01-03T09:38:57.239Z,1.15
2019-01-03T09:39:57.890Z,1.16
2019-01-03T09:40:59.429Z,1.17
2019-01-03T09:41:58.153Z,1.18
2019-01-03T09:42:59.634Z,1.19
2019-01-03T09:44:00.174Z,1.21
2019-01-03T09:45:00.824Z,1.22
2019-01-03T09:46:01.371Z,1.23
2019-01-03T09:47:02.089Z,1.25
2019-01-03T09:48:02.915Z,1.26
2019-01-03T09:49:02.997Z,1.28
2019-01-03T09:50:03.510Z,1.29
2019-01-03T09:51:03.972Z,1.30
2019-01-03T09:52:04.774Z,1.32
2019-01-03T09:53:04.088Z,1.33
2019-01-03T09:54:05.687Z,1.34
2019-01-03T09:55:06.168Z,1.36
2019-01-03T09:56:07.082Z,1.37
2019-01-03T09:57:08.019Z,1.38
2019-01-03T09:58:08.590Z,1.40
2019-01-03T09:59:09.230Z,1.41
2019-01-03T10:00:10.042Z,1.42
2019-01-03T10:01:10.846Z,1.42
2019-01-03T10:02:11.492Z,1.43
2019-01-03T10:02:19.787Z,1.55
2019-01-03T10:03:21.276Z,1.54
2019-01-03T10:04:21.795Z,1.54
2019-01-03T10:05:22.315Z,1.54
2019-01-03T10:06:22.773Z,1.54
2019-01-03T10:07:23.293Z,1.54
2019-01-03T10:08:23.886Z,1.54
2019-01-03T10:09:24.600Z,1.54
2019-01-03T10:10:25.231Z,1.53
2019-01-03T10:11:25.719Z,1.53
2019-01-03T10:12:26.224Z,1.53
2019-01-03T10:13:26.844Z,1.53
2019-01-03T10:14:27.314Z,1.53
2019-01-03T10:15:27.797Z,1.54
2019-01-03T10:16:28.447Z,1.54
2019-01-03T10:17:29.000Z,1.54
2019-01-03T10:18:29.631Z,1.54
2019-01-03T10:19:30.020Z,1.54
2019-01-03T10:20:30.661Z,1.54
2019-01-03T10:21:31.102Z,1.54
2019-01-03T10:22:34.765Z,1.54
2019-01-03T10:23:32.330Z,1.54
2019-01-03T10:24:31.995Z,1.54
2019-01-03T10:25:33.401Z,1.54
2019-01-03T10:26:34.246Z,1.55
2019-01-03T10:27:34.832Z,1.55
2019-01-03T10:28:35.265Z,1.55
2019-01-03T10:29:35.791Z,1.56
2019-01-03T10:30:36.234Z,1.56
2019-01-03T10:31:36.725Z,1.57
2019-01-03T10:32:37.224Z,1.57
2019-01-03T10:33:37.260Z,1.58
2019-01-03T10:34:37.736Z,1.59
2019-01-03T10:35:38.248Z,1.60
2019-01-03T10:36:39.014Z,1.61
2019-01-03T10:37:39.488Z,1.62
2019-01-03T10:38:39.951Z,1.63
2019-01-03T10:39:39.460Z,1.64
2019-01-03T10:40:41.342Z,1.65
2019-01-03T10:41:42.035Z,1.66
2019-01-03T10:42:42.563Z,1.68
2019-01-03T10:43:43.122Z,1.69
2019-01-03T10:44:43.693Z,1.70
2019-01-03T10:45:44.289Z,1.72
2019-01-03T10:46:44.986Z,1.73
2019-01-03T10:47:45.564Z,1.74
2019-01-03T10:47:57.626Z,1.92
2019-01-03T10:48:58.248Z,1.92
2019-01-03T10:49:58.764Z,1.92
2019-01-03T10:50:59.347Z,1.91
2019-01-03T10:51:59.914Z,1.91
2019-01-03T10:53:00.522Z,1.91
2019-01-03T10:54:01.187Z,1.90
2019-01-03T10:55:01.737Z,1.90
2019-01-03T10:56:01.332Z,1.90
2019-01-03T10:57:02.914Z,1.90
2019-01-03T10:58:04.508Z,1.90
2019-01-03T10:59:04.130Z,1.91
2019-01-03T11:00:04.805Z,1.91
2019-01-03T11:01:05.501Z,1.91
2019-01-03T11:02:06.364Z,1.92
2019-01-03T11:03:07.082Z,1.92
2019-01-03T11:04:07.916Z,1.92
2019-01-03T11:05:08.467Z,1.92
2019-01-03T11:06:09.181Z,1.92
2019-01-03T11:07:09.722Z,1.93
2019-01-03T11:08:10.477Z,1.93
2019-01-03T11:09:11.308Z,1.93
2019-01-03T11:10:11.846Z,1.93
2019-01-03T11:11:12.390Z,1.93
2019-01-03T11:12:13.106Z,1.94
2019-01-03T11:13:13.983Z,1.95
2019-01-03T11:14:14.613Z,1.96
2019-01-03T11:15:15.283Z,1.97
2019-01-03T11:16:16.400Z,1.98
2019-01-03T11:17:15.643Z,1.99
2019-01-03T11:18:17.360Z,2.00
2019-01-03T11:19:18.159Z,2.00
2019-01-03T11:20:18.441Z,2.02
2019-01-03T11:21:19.013Z,2.03
2019-01-03T11:22:19.406Z,2.04
2019-01-03T11:23:20.053Z,2.05
2019-01-03T11:24:20.627Z,2.07
2019-01-03T11:25:21.227Z,2.08
2019-01-03T11:26:24.444Z,2.09
2019-01-03T11:27:28.070Z,2.11
2019-01-03T11:28:27.752Z,2.13
2019-01-03T11:29:23.216Z,2.14
2019-01-03T11:30:55.161Z,2.41
2019-01-03T11:32:05.772Z,2.41
2019-01-03T11:32:57.320Z,2.41
2019-01-03T11:34:07.032Z,2.41
2019-01-03T11:34:57.561Z,2.41
2019-01-03T11:35:59.571Z,2.41
2019-01-03T11:36:58.796Z,2.41
2019-01-03T11:38:00.239Z,2.42
2019-01-03T11:39:00.913Z,2.42
2019-01-03T11:40:01.614Z,2.42
2019-01-03T11:41:02.087Z,2.43
2019-01-03T11:42:02.108Z,2.44
2019-01-03T11:43:02.541Z,2.44
2019-01-03T11:44:04.501Z,2.45
2019-01-03T11:45:07.323Z,2.46
2019-01-03T11:46:03.479Z,2.47
2019-01-03T11:47:05.409Z,2.48
2019-01-03T11:48:06.587Z,2.49
2019-01-03T11:49:04.841Z,2.51
2019-01-03T11:50:06.729Z,2.52
2019-01-03T11:51:07.424Z,2.53
2019-01-03T11:52:08.240Z,2.55
2019-01-03T11:53:08.937Z,2.56
2019-01-03T11:54:09.489Z,2.57
2019-01-03T11:55:09.971Z,2.59
2019-01-03T11:56:10.400Z,2.60
2019-01-03T11:57:11.111Z,2.61
2019-01-03T11:58:11.962Z,2.63
2019-01-03T11:59:12.581Z,2.65
2019-01-03T12:00:13.171Z,2.67
2019-01-03T12:01:13.594Z,2.69
2019-01-03T12:02:14.484Z,2.71
2019-01-03T12:03:15.071Z,2.72
2019-01-03T12:04:15.587Z,2.74
2019-01-03T12:05:16.454Z,2.76
2019-01-03T12:06:17.023Z,2.77
2019-01-03T12:07:17.560Z,2.79
2019-01-03T12:08:18.046Z,2.80
2019-01-03T12:09:18.754Z,2.82
2019-01-03T12:10:19.452Z,2.83
2019-01-03T12:11:19.881Z,2.85
2019-01-03T12:12:20.662Z,2.87
2019-01-03T12:13:21.264Z,2.89
2019-01-03T12:14:21.703Z,2.91
2019-01-03T12:15:22.387Z,2.93
2019-01-03T12:16:22.953Z,2.94
2019-01-03T12:17:23.611Z,2.96
2019-01-03T12:18:24.408Z,2.97
2019-01-03T12:19:25.060Z,2.98
2019-01-03T12:20:25.628Z,3.00
2019-01-03T12:20:34.087Z,3.20
2019-01-03T12:21:33.874Z,3.20
2019-01-03T12:22:35.524Z,3.20
2019-01-03T12:23:36.018Z,3.20
2019-01-03T12:24:36.070Z,3.20
2019-01-03T12:25:36.528Z,3.20
2019-01-03T12:26:36.983Z,3.21
2019-01-03T12:27:37.556Z,3.21
2019-01-03T12:28:38.400Z,3.22
2019-01-03T12:29:38.930Z,3.22
2019-01-03T12:30:39.385Z,3.22
2019-01-03T12:31:39.948Z,3.22
2019-01-03T12:32:39.749Z,3.22
2019-01-03T12:33:41.226Z,3.22
2019-01-03T12:34:41.811Z,3.22
2019-01-03T12:35:42.499Z,3.22
2019-01-03T12:36:42.507Z,3.22
2019-01-03T12:37:43.138Z,3.21
2019-01-03T12:38:43.843Z,3.21
2019-01-03T12:39:44.442Z,3.21
2019-01-03T12:40:45.090Z,3.21
2019-01-03T12:41:45.939Z,3.21
2019-01-03T12:42:46.572Z,3.21
2019-01-03T12:43:47.115Z,3.21
2019-01-03T12:44:47.690Z,3.21
2019-01-03T12:45:48.217Z,3.21
2019-01-03T12:46:48.266Z,3.22
2019-01-03T12:47:48.901Z,3.22
2019-01-03T12:48:49.285Z,3.22
2019-01-03T12:49:49.774Z,3.23
2019-01-03T12:50:50.352Z,3.23
2019-01-03T12:51:50.997Z,3.23
2019-01-03T12:52:51.804Z,3.23
2019-01-03T12:53:51.852Z,3.23
2019-01-03T12:54:52.497Z,3.23
2019-01-03T12:55:53.219Z,3.24
2019-01-03T12:56:54.139Z,3.24
2019-01-03T12:57:54.655Z,3.25
2019-01-03T12:58:54.590Z,3.26
2019-01-03T12:59:56.100Z,3.26
2019-01-03T13:00:56.646Z,3.27
2019-01-03T13:01:57.353Z,3.28
2019-01-03T13:02:57.977Z,3.29
2019-01-03T13:03:58.540Z,3.29
2019-01-03T13:04:59.174Z,3.30
2019-01-03T13:05:59.704Z,3.31